Time;durP1;ratioP1;P1;durP2;ratioP2;P2;SDS_P1;SDS_P2;PMS_P1;PMS_P2;Temp;Humidity;BMP_temperature;BMP_pressure;BME280_temperature;BME280_humidity;BME280_pressure;Samples;Min_cycle;Max_cycle;Signal;HPM_P1;HPM_P2
2024/01/11 00:00:59;;;;;;;68.93;22.58;;;;;;;-2.60;100.00;103055.34;7328040;19;20253;-45
2024/01/11 00:03:29;;;;;;;32.35;12.93;;;;;;;-2.80;100.00;103060.28;7350715;19;20201;-43
2024/01/11 00:05:58;;;;;;;26.45;11.95;;;;;;;-2.69;100.00;103070.22;7327722;19;20302;-41
2024/01/11 00:08:30;;;;;;;30.92;11.45;;;;;;;-2.68;100.00;103084.66;7348586;19;20681;-40
2024/01/11 00:11:00;;;;;;;31.25;12.70;;;;;;;-2.63;100.00;103091.25;7328011;19;20572;-41
2024/01/11 00:13:30;;;;;;;38.67;13.70;;;;;;;-2.73;100.00;103085.66;7349520;19;20237;-42
2024/01/11 00:15:59;;;;;;;44.63;15.85;;;;;;;-2.65;100.00;103097.72;7327302;19;20261;-43
2024/01/11 00:18:29;;;;;;;37.47;13.20;;;;;;;-2.62;100.00;103098.13;7349024;19;20221;-42
2024/01/11 00:20:59;;;;;;;32.20;13.43;;;;;;;-2.65;100.00;103101.88;7327681;19;20208;-42
2024/01/11 00:23:31;;;;;;;33.13;13.02;;;;;;;-2.66;100.00;103107.63;7349779;19;20288;-40
2024/01/11 00:26:00;;;;;;;26.58;10.93;;;;;;;-2.59;100.00;103116.25;7326635;19;20198;-45
2024/01/11 00:28:30;;;;;;;34.55;12.80;;;;;;;-2.66;100.00;103111.09;7347965;19;20276;-41
2024/01/11 00:31:00;;;;;;;32.20;13.98;;;;;;;-2.55;100.00;103109.03;7326181;19;20193;-42
2024/01/11 00:33:29;;;;;;;34.75;12.65;;;;;;;-2.83;100.00;103082.66;7347563;19;20710;-41
2024/01/11 00:35:59;;;;;;;33.90;13.93;;;;;;;-2.65;100.00;103096.81;7326711;19;20731;-41
2024/01/11 00:38:31;;;;;;;43.58;16.05;;;;;;;-2.54;100.00;103105.81;7348245;19;20269;-42
2024/01/11 00:41:01;;;;;;;79.10;26.98;;;;;;;-2.48;100.00;103106.63;7327155;19;20544;-44
2024/01/11 00:43:31;;;;;;;54.38;18.83;;;;;;;-2.56;100.00;103118.28;7346955;19;20206;-41
2024/01/11 00:46:00;;;;;;;36.92;13.40;;;;;;;-2.74;100.00;103111.66;7326521;19;20233;-42
2024/01/11 00:48:30;;;;;;;89.25;25.45;;;;;;;-2.58;100.00;103107.03;7348010;19;20567;-41
2024/01/11 00:50:59;;;;;;;42.67;14.23;;;;;;;-2.95;100.00;103104.63;7327169;19;20269;-41
2024/01/11 00:53:33;;;;;;;48.22;16.80;;;;;;;-2.82;100.00;103110.63;7347785;19;20233;-42
2024/01/11 00:56:03;;;;;;;75.32;26.00;;;;;;;-2.60;100.00;103121.97;7326361;19;20190;-41
2024/01/11 00:58:33;;;;;;;34.97;14.02;;;;;;;-2.74;100.00;103126.81;7347053;19;20790;-40
2024/01/11 01:01:02;;;;;;;59.72;21.00;;;;;;;-2.77;100.00;103136.53;7326925;19;20629;-40
2024/01/11 01:03:32;;;;;;;37.13;14.10;;;;;;;-2.85;100.00;103136.44;7347323;19;20254;-42
2024/01/11 01:06:02;;;;;;;47.25;16.05;;;;;;;-2.89;100.00;103130.72;7326369;19;20194;-40
2024/01/11 01:08:35;;;;;;;36.83;12.65;;;;;;;-3.24;100.00;103126.91;7347747;19;20273;-42
2024/01/11 01:11:05;;;;;;;33.75;13.73;;;;;;;-3.36;100.00;103147.25;7326248;19;20229;-39
2024/01/11 01:13:35;;;;;;;47.78;17.30;;;;;;;-3.06;100.00;103171.41;7346577;19;20273;-39
2024/01/11 01:16:05;;;;;;;31.15;12.30;;;;;;;-3.13;100.00;103180.69;7326087;19;20186;-39
2024/01/11 01:18:34;;;;;;;81.03;25.38;;;;;;;-2.86;100.00;103187.66;7346701;19;20208;-40
2024/01/11 01:21:06;;;;;;;30.13;11.95;;;;;;;-3.13;100.00;103205.06;7325864;19;20196;-39
2024/01/11 01:23:39;;;;;;;34.13;13.85;;;;;;;-3.16;100.00;103207.16;7347983;19;20198;-40
2024/01/11 01:26:09;;;;;;;39.00;14.25;;;;;;;-3.17;100.00;103223.91;7325578;19;20224;-40
2024/01/11 01:28:39;;;;;;;70.50;21.50;;;;;;;-2.80;100.00;103242.25;7344651;19;20204;-44
2024/01/11 01:31:09;;;;;;;34.85;14.43;;;;;;;-3.23;100.00;103223.06;7324175;19;21796;-42
2024/01/11 01:33:39;;;;;;;41.60;14.65;;;;;;;-3.19;100.00;103220.25;7346584;19;20194;-42
2024/01/11 01:36:11;;;;;;;43.85;15.38;;;;;;;-3.21;100.00;103225.81;7325338;19;20206;-41
2024/01/11 01:38:43;;;;;;;73.55;24.48;;;;;;;-3.15;100.00;103231.69;7346287;19;20206;-40
2024/01/11 01:41:13;;;;;;;42.42;14.55;;;;;;;-3.26;100.00;103255.50;7325805;19;20197;-41
2024/01/11 01:43:42;;;;;;;67.60;21.65;;;;;;;-3.08;100.00;103263.78;7344810;19;20198;-41
2024/01/11 01:46:14;;;;;;;39.22;14.88;;;;;;;-3.04;100.00;103288.75;7326013;19;20198;-40
2024/01/11 01:48:44;;;;;;;68.55;23.67;;;;;;;-2.92;100.00;103292.06;7345696;19;20201;-41
2024/01/11 01:51:14;;;;;;;53.88;18.88;;;;;;;-3.14;100.00;103289.09;7325676;19;20209;-40
2024/01/11 01:53:46;;;;;;;72.75;24.25;;;;;;;-2.70;100.00;103311.06;7346262;19;20307;-39
2024/01/11 01:56:16;;;;;;;53.85;18.13;;;;;;;-2.83;100.00;103305.03;7325350;19;20198;-42
2024/01/11 01:58:46;;;;;;;80.88;25.90;;;;;;;-2.92;100.00;103303.06;7345528;19;20221;-41
2024/01/11 02:01:16;;;;;;;47.72;16.60;;;;;;;-2.87;100.00;103312.19;7326728;19;20194;-43
2024/01/11 02:03:48;;;;;;;44.25;16.30;;;;;;;-3.01;100.00;103306.88;7353683;19;20701;-39
2024/01/11 02:06:18;;;;;;;34.63;14.18;;;;;;;-3.27;100.00;103309.22;7333180;19;20197;-42
2024/01/11 02:08:52;;;;;;;86.25;27.45;;;;;;;-3.07;100.00;103311.06;7327806;19;20216;-39
2024/01/11 02:11:23;;;;;;;50.75;19.65;;;;;;;-3.08;100.00;103314.31;7353070;19;20209;-46
2024/01/11 02:13:53;;;;;;;60.20;19.90;;;;;;;-2.96;100.00;103310.94;7330979;19;20559;-40
2024/01/11 02:16:22;;;;;;;40.38;15.13;;;;;;;-3.14;100.00;103296.66;7352765;19;20198;-40
2024/01/11 02:18:52;;;;;;;61.15;16.92;;;;;;;-3.01;100.00;103312.84;7329701;19;20993;-39
2024/01/11 02:21:22;;;;;;;76.32;25.70;;;;;;;-2.85;100.00;103325.97;7352186;19;20763;-43
2024/01/11 02:24:08;;;;;;;44.90;15.88;;;;;;;-2.75;100.00;103335.72;7330329;19;20281;-42
2024/01/11 02:26:38;;;;;;;47.55;16.48;;;;;;;-2.92;100.00;103353.59;7351886;19;20230;-39
2024/01/11 02:29:08;;;;;;;40.22;15.43;;;;;;;-2.78;100.00;103367.25;7330657;19;20319;-43
2024/01/11 02:31:38;;;;;;;42.55;15.10;;;;;;;-3.02;100.00;103360.63;7349430;19;20596;-40
2024/01/11 02:34:07;;;;;;;62.05;20.45;;;;;;;-3.09;100.00;103353.78;7331031;19;20620;-38
2024/01/11 02:36:37;;;;;;;127.00;38.22;;;;;;;-2.98;100.00;103347.69;7351620;19;20201;-40
2024/01/11 02:39:10;;;;;;;43.55;16.35;;;;;;;-3.17;100.00;103344.25;7330526;19;20214;-38
2024/01/11 02:41:40;;;;;;;59.20;19.52;;;;;;;-2.94;100.00;103364.19;7352816;19;20194;-38
2024/01/11 02:44:10;;;;;;;43.60;16.00;;;;;;;-2.87;100.00;103366.88;7329076;19;20205;-38
2024/01/11 02:46:40;;;;;;;45.00;16.20;;;;;;;-3.05;100.00;103363.63;7352731;19;20223;-38
2024/01/11 02:49:09;;;;;;;55.42;19.27;;;;;;;-3.06;100.00;103345.72;7330037;19;20231;-39
2024/01/11 02:51:39;;;;;;;90.30;28.15;;;;;;;-2.87;100.00;103346.66;7352526;19;20198;-42
2024/01/11 02:54:11;;;;;;;40.58;15.07;;;;;;;-3.01;100.00;103347.28;7329789;19;20585;-38
2024/01/11 02:56:42;;;;;;;50.95;17.75;;;;;;;-3.01;100.00;103337.19;7351940;19;20208;-40
2024/01/11 02:59:11;;;;;;;45.88;15.80;;;;;;;-2.92;100.00;103330.84;7329555;19;20231;-38
2024/01/11 03:01:41;;;;;;;92.85;28.55;;;;;;;-2.88;100.00;103328.06;7351774;19;20194;-42
2024/01/11 03:04:11;;;;;;;39.95;14.13;;;;;;;-2.98;100.00;103319.91;7330485;19;20244;-38
2024/01/11 03:06:40;;;;;;;65.20;19.83;;;;;;;-2.87;100.00;103319.75;7351564;19;20194;-41
2024/01/11 03:09:13;;;;;;;53.15;17.80;;;;;;;-2.83;100.00;103337.91;7329275;19;20757;-38
2024/01/11 03:11:42;;;;;;;37.15;12.90;;;;;;;-3.05;100.00;103324.81;7350767;19;20186;-42
2024/01/11 03:14:12;;;;;;;36.72;13.95;;;;;;;-2.97;100.00;103319.22;7327850;19;20202;-38
2024/01/11 03:16:42;;;;;;;39.80;14.65;;;;;;;-2.97;100.00;103316.69;7351512;19;20198;-39
2024/01/11 03:19:12;;;;;;;43.95;15.40;;;;;;;-2.94;100.00;103299.41;7330116;19;20212;-39
2024/01/11 03:21:46;;;;;;;46.95;14.98;;;;;;;-2.89;100.00;103305.09;7351072;19;20198;-39
2024/01/11 03:24:18;;;;;;;199.80;53.40;;;;;;;-2.73;100.00;103306.50;7330590;19;20202;-43
2024/01/11 03:26:48;;;;;;;44.50;16.58;;;;;;;-2.72;100.00;103302.38;7335221;19;20191;-38
2024/01/11 03:29:17;;;;;;;42.17;15.30;;;;;;;-2.81;100.00;103290.97;7350303;19;20213;-40
2024/01/11 03:31:47;;;;;;;42.92;16.02;;;;;;;-2.45;100.00;103304.28;7340418;19;20198;-38
2024/01/11 03:34:17;;;;;;;38.78;14.40;;;;;;;-2.65;100.00;103309.16;7349877;19;20623;-40
2024/01/11 03:36:46;;;;;;;58.13;18.08;;;;;;;-2.84;100.00;103311.69;7348735;19;20691;-41
2024/01/11 03:39:19;;;;;;;42.78;15.45;;;;;;;-2.86;100.00;103314.00;7350575;19;20224;-38
2024/01/11 03:41:48;;;;;;;40.55;15.15;;;;;;;-2.90;100.00;103314.31;7330670;19;20198;-39
2024/01/11 03:44:18;;;;;;;69.50;22.58;;;;;;;-2.83;100.00;103315.16;7348679;19;20210;-39
2024/01/11 03:46:48;;;;;;;32.42;12.85;;;;;;;-2.68;100.00;103319.75;7335486;19;20214;-40
2024/01/11 03:49:17;;;;;;;61.75;22.15;;;;;;;-2.63;100.00;103298.56;7350601;19;20205;-40
2024/01/11 03:51:47;;;;;;;64.68;21.15;;;;;;;-2.27;100.00;103303.31;7342392;19;20202;-37
2024/01/11 03:54:19;;;;;;;78.38;27.73;;;;;;;-2.36;100.00;103284.38;7350752;19;20314;-43
2024/01/11 03:56:49;;;;;;;46.28;15.38;;;;;;;-2.72;100.00;103251.81;7328031;19;20298;-38
2024/01/11 03:59:19;;;;;;;41.63;16.75;;;;;;;-2.62;100.00;103244.75;7349132;19;20210;-39
2024/01/11 04:01:48;;;;;;;45.10;15.80;;;;;;;-2.52;100.00;103226.66;7328135;19;20312;-38
2024/01/11 04:04:18;;;;;;;52.33;19.27;;;;;;;-2.53;100.00;103207.16;7350508;19;20200;-42
2024/01/11 04:06:48;;;;;;;51.83;18.55;;;;;;;-2.59;100.00;103194.63;7334504;19;20200;-38
2024/01/11 04:09:20;;;;;;;62.35;21.00;;;;;;;-2.76;100.00;103168.69;7348031;19;20227;-38
2024/01/11 04:11:50;;;;;;;45.65;16.52;;;;;;;-2.71;100.00;103161.00;7328045;19;20214;-37
2024/01/11 04:14:19;;;;;;;184.80;53.78;;;;;;;-2.56;100.00;103161.25;7349524;19;20205;-37
2024/01/11 04:16:49;;;;;;;43.72;15.38;;;;;;;-2.65;100.00;103155.88;7327587;19;20219;-38
2024/01/11 04:19:18;;;;;;;41.50;14.77;;;;;;;-3.05;100.00;103115.13;7348980;19;20210;-39
2024/01/11 04:21:52;;;;;;;39.30;16.17;;;;;;;-3.10;100.00;103108.53;7326840;19;20202;-38
2024/01/11 04:24:24;;;;;;;100.50;30.23;;;;;;;-2.96;100.00;103113.84;7349607;19;20190;-38
2024/01/11 04:26:53;;;;;;;49.40;17.35;;;;;;;-2.77;100.00;103126.44;7326694;19;20200;-38
2024/01/11 04:29:23;;;;;;;35.90;14.95;;;;;;;-2.91;100.00;103106.88;7349013;19;20213;-38
2024/01/11 04:31:52;;;;;;;63.80;21.92;;;;;;;-2.87;100.00;103104.97;7324380;19;20186;-38
2024/01/11 04:34:22;;;;;;;83.03;26.92;;;;;;;-2.88;100.00;103103.16;7348706;19;20212;-38
2024/01/11 04:36:52;;;;;;;44.80;16.27;;;;;;;-2.77;100.00;103121.38;7327624;19;20665;-37
2024/01/11 04:39:24;;;;;;;44.22;16.50;;;;;;;-2.80;100.00;103116.81;7349024;19;20233;-39
2024/01/11 04:41:53;;;;;;;44.22;14.80;;;;;;;-2.89;100.00;103086.16;7327359;19;20186;-43
2024/01/11 04:44:23;;;;;;;48.22;17.67;;;;;;;-2.73;100.00;103078.09;7347451;19;20205;-42
2024/01/11 04:46:56;;;;;;;41.35;15.43;;;;;;;-2.81;100.00;103074.56;7327131;19;20550;-38
2024/01/11 04:49:25;;;;;;;49.97;15.90;;;;;;;-2.85;100.00;103070.72;7348150;19;20228;-39
2024/01/11 04:51:55;;;;;;;49.67;16.40;;;;;;;-2.73;100.00;103067.97;7326730;19;20194;-37
2024/01/11 04:54:27;;;;;;;42.35;14.82;;;;;;;-2.79;100.00;103082.31;7349792;19;20205;-39
2024/01/11 04:56:57;;;;;;;45.75;17.02;;;;;;;-2.59;100.00;103111.19;7326578;19;20627;-38
2024/01/11 04:59:27;;;;;;;35.65;14.18;;;;;;;-2.77;100.00;103106.22;7347807;19;20636;-38
2024/01/11 05:01:57;;;;;;;36.70;12.65;;;;;;;-3.02;100.00;103080.19;7327135;19;20197;-38
2024/01/11 05:04:26;;;;;;;39.25;13.80;;;;;;;-2.83;100.00;103091.13;7345203;19;20254;-38
2024/01/11 05:06:56;;;;;;;38.67;13.68;;;;;;;-2.86;100.00;103090.72;7326509;19;20205;-40
2024/01/11 05:09:28;;;;;;;52.17;15.20;;;;;;;-2.97;100.00;103081.72;7346842;19;20782;-38
2024/01/11 05:11:58;;;;;;;45.85;14.75;;;;;;;-2.65;100.00;103097.72;7325832;19;20228;-39
2024/01/11 05:14:27;;;;;;;94.65;28.98;;;;;;;-2.63;100.00;103098.84;7348310;19;20277;-38
2024/01/11 05:16:57;;;;;;;71.90;21.38;;;;;;;-2.55;100.00;103098.94;7325892;19;20202;-38
2024/01/11 05:19:27;;;;;;;46.78;16.08;;;;;;;-2.74;100.00;103104.06;7347756;19;20231;-38
2024/01/11 05:21:56;;;;;;;196.55;63.28;;;;;;;-2.68;100.00;103125.13;7326413;19;20604;-38
2024/01/11 05:24:29;;;;;;;51.22;16.48;;;;;;;-2.67;100.00;103131.97;7347926;19;20227;-38
2024/01/11 05:26:59;;;;;;;117.68;36.10;;;;;;;-2.74;100.00;103140.38;7323208;19;20253;-38
2024/01/11 05:29:28;;;;;;;81.05;25.60;;;;;;;-2.69;100.00;103153.63;7344084;19;20201;-39
2024/01/11 05:31:58;;;;;;;136.68;40.15;;;;;;;-2.55;100.00;103159.63;7323890;19;20197;-39
2024/01/11 05:34:28;;;;;;;41.50;15.20;;;;;;;-2.74;100.00;103162.22;7347306;19;20211;-41
2024/01/11 05:36:57;;;;;;;93.28;26.75;;;;;;;-2.62;100.00;103158.78;7327202;19;20210;-38
2024/01/11 05:39:32;;;;;;;40.42;15.77;;;;;;;-2.48;100.00;103167.31;7353456;19;20206;-39
2024/01/11 05:42:01;;;;;;;36.80;14.32;;;;;;;-2.71;100.00;103153.41;7332826;19;20197;-38
2024/01/11 05:44:31;;;;;;;78.75;23.67;;;;;;;-2.70;100.00;103159.41;7352413;19;20194;-43
2024/01/11 05:47:01;;;;;;;43.50;15.75;;;;;;;-2.77;100.00;103156.75;7332348;19;20207;-38
2024/01/11 05:49:30;;;;;;;120.82;35.15;;;;;;;-2.65;100.00;103154.94;7353186;19;20234;-40
2024/01/11 05:52:00;;;;;;;39.40;13.48;;;;;;;-2.77;100.00;103152.59;7332285;19;20211;-39
2024/01/11 05:54:32;;;;;;;184.32;54.00;;;;;;;-2.52;100.00;103160.94;7354178;19;20190;-39
2024/01/11 05:57:02;;;;;;;36.35;11.68;;;;;;;-2.61;100.00;103162.25;7331059;19;20258;-38
2024/01/11 05:59:31;;;;;;;25.15;9.52;;;;;;;-2.77;100.00;103164.34;7352764;19;20226;-39
2024/01/11 06:02:01;;;;;;;74.15;24.65;;;;;;;-2.71;100.00;103163.53;7331594;19;20209;-39
2024/01/11 06:04:31;;;;;;;40.85;13.18;;;;;;;-2.81;100.00;103172.19;7354565;19;20320;-38
2024/01/11 06:07:01;;;;;;;36.75;12.25;;;;;;;-2.64;100.00;103185.50;7331619;19;20564;-39
2024/01/11 06:09:33;;;;;;;36.85;12.07;;;;;;;-2.64;100.00;103182.97;7352363;19;20247;-39
2024/01/11 06:12:02;;;;;;;43.38;14.77;;;;;;;-2.69;100.00;103199.13;7331707;19;20198;-39
2024/01/11 06:14:32;;;;;;;204.48;56.67;;;;;;;-2.17;100.00;103222.91;7353867;19;20202;-40
2024/01/11 06:17:01;;;;;;;40.85;13.75;;;;;;;-2.51;100.00;103232.66;7330706;19;20651;-44
2024/01/11 06:19:31;;;;;;;39.47;11.05;;;;;;;-2.53;100.00;103239.09;7353234;19;20198;-39
2024/01/11 06:22:01;;;;;;;40.60;11.60;;;;;;;-2.49;100.00;103236.28;7331055;19;20198;-39
2024/01/11 06:24:33;;;;;;;80.97;25.40;;;;;;;-2.64;100.00;103238.59;7352394;19;20202;-41
2024/01/11 06:27:03;;;;;;;37.13;11.32;;;;;;;-2.52;100.00;103251.94;7330408;19;20186;-39
2024/01/11 06:29:33;;;;;;;38.95;11.35;;;;;;;-2.60;100.00;103253.44;7350876;19;20206;-39
2024/01/11 06:32:02;;;;;;;39.60;13.73;;;;;;;-2.52;100.00;103251.06;7329335;19;20212;-38
2024/01/11 06:34:32;;;;;;;37.72;13.15;;;;;;;-2.67;100.00;103240.69;7352119;19;20194;-38
2024/01/11 06:37:02;;;;;;;36.33;12.55;;;;;;;-2.59;100.00;103250.22;7330555;19;20202;-38
2024/01/11 06:39:34;;;;;;;27.73;8.95;;;;;;;-2.69;100.00;103247.16;7351768;19;20277;-38
2024/01/11 06:42:04;;;;;;;73.85;21.45;;;;;;;-2.54;100.00;103252.44;7330710;19;20273;-38
2024/01/11 06:44:34;;;;;;;120.22;28.98;;;;;;;-2.62;100.00;103254.84;7350567;19;20194;-38
2024/01/11 06:47:05;;;;;;;43.10;13.02;;;;;;;-2.55;100.00;103271.78;7330030;19;20219;-37
2024/01/11 06:49:36;;;;;;;212.70;57.15;;;;;;;-2.31;100.00;103279.22;7351561;19;20209;-40
2024/01/11 06:52:06;;;;;;;37.80;11.75;;;;;;;-2.59;100.00;103265.41;7330656;19;20211;-39
2024/01/11 06:54:39;;;;;;;26.00;9.38;;;;;;;-2.73;100.00;103265.13;7351449;19;20190;-41
2024/01/11 06:57:08;;;;;;;104.30;27.30;;;;;;;-2.61;100.00;103266.78;7330099;19;20209;-42
2024/01/11 06:59:38;;;;;;;31.65;11.57;;;;;;;-2.55;100.00;103270.84;7350950;19;20204;-38
2024/01/11 07:02:08;;;;;;;49.67;15.20;;;;;;;-2.29;100.00;103286.09;7330394;19;20194;-38
2024/01/11 07:04:37;;;;;;;130.43;34.13;;;;;;;-2.08;100.00;103288.06;7349224;19;20198;-38
2024/01/11 07:07:07;;;;;;;30.85;8.30;;;;;;;-2.29;100.00;103296.22;7330081;19;20207;-41
2024/01/11 07:09:39;;;;;;;37.25;11.55;;;;;;;-2.35;100.00;103316.56;7350094;19;20201;-39
2024/01/11 07:12:09;;;;;;;33.38;8.35;;;;;;;-2.52;100.00;103312.63;7330295;19;20264;-39
2024/01/11 07:14:39;;;;;;;35.50;11.90;;;;;;;-2.36;100.00;103325.75;7351178;19;20186;-40
2024/01/11 07:17:09;;;;;;;84.90;24.92;;;;;;;-2.05;100.00;103328.97;7329393;19;20574;-38
2024/01/11 07:19:39;;;;;;;119.60;36.90;;;;;;;-2.08;100.00;103339.59;7350152;19;20269;-38
2024/01/11 07:22:08;;;;;;;20.90;7.95;;;;;;;-2.11;100.00;103343.34;7330222;19;20246;-39
2024/01/11 07:24:40;;;;;;;19.98;6.97;;;;;;;-2.38;100.00;103332.22;7350794;19;20195;-41
2024/01/11 07:27:10;;;;;;;73.38;20.45;;;;;;;-2.33;100.00;103336.28;7329915;19;20269;-39
2024/01/11 07:29:40;;;;;;;19.13;7.50;;;;;;;-2.33;100.00;103340.41;7349981;19;20634;-39
2024/01/11 07:32:10;;;;;;;24.75;7.18;;;;;;;-2.38;100.00;103341.41;7326620;19;20194;-42
2024/01/11 07:34:39;;;;;;;163.55;43.88;;;;;;;-2.05;100.00;103334.94;7350168;19;20222;-38
2024/01/11 07:37:10;;;;;;;28.48;10.05;;;;;;;-2.11;100.00;103338.28;7328702;19;20219;-39
2024/01/11 07:39:44;;;;;;;17.52;6.85;;;;;;;-2.05;100.00;103340.00;7349400;19;20198;-38
2024/01/11 07:42:14;;;;;;;21.73;7.30;;;;;;;-2.17;100.00;103335.81;7329707;19;20205;-39
2024/01/11 07:44:44;;;;;;;20.60;7.60;;;;;;;-2.35;100.00;103317.44;7348893;19;20194;-39
2024/01/11 07:47:13;;;;;;;22.65;6.85;;;;;;;-2.36;100.00;103313.09;7329739;19;20222;-38
2024/01/11 07:49:43;;;;;;;21.48;7.40;;;;;;;-2.36;100.00;103315.63;7349547;19;20675;-38
2024/01/11 07:52:12;;;;;;;23.52;7.38;;;;;;;-2.38;100.00;103314.50;7329226;19;20202;-38
2024/01/11 07:54:45;;;;;;;28.08;7.85;;;;;;;-2.26;100.00;103321.94;7350662;19;20260;-38
2024/01/11 07:57:15;;;;;;;22.15;7.57;;;;;;;-2.21;100.00;103331.06;7329290;19;20298;-38
2024/01/11 07:59:45;;;;;;;85.72;25.70;;;;;;;-1.97;100.00;103332.50;7347764;19;20273;-38
2024/01/11 08:02:16;;;;;;;23.73;7.07;;;;;;;-2.00;100.00;103329.59;7329086;19;20210;-39
2024/01/11 08:04:45;;;;;;;104.78;29.83;;;;;;;-1.98;100.00;103318.97;7349702;19;20197;-39
2024/01/11 08:07:16;;;;;;;136.63;39.97;;;;;;;-1.77;100.00;103323.44;7326861;19;20203;-38
2024/01/11 08:09:48;;;;;;;24.15;7.30;;;;;;;-1.96;100.00;103307.41;7349278;19;20635;-39
2024/01/11 08:12:17;;;;;;;20.00;6.50;;;;;;;-1.91;100.00;103295.38;7328548;19;20217;-39
2024/01/11 08:14:48;;;;;;;42.53;13.43;;;;;;;-1.84;100.00;103290.41;7344280;19;20194;-40
2024/01/11 08:17:18;;;;;;;146.65;42.08;;;;;;;-1.92;100.00;103297.00;7349228;19;20202;-40
2024/01/11 08:19:47;;;;;;;18.55;6.20;;;;;;;-2.19;100.00;103297.66;7341759;19;20255;-37
2024/01/11 08:22:17;;;;;;;30.30;10.18;;;;;;;-2.23;100.00;103292.91;7349206;19;20210;-38
2024/01/11 08:24:50;;;;;;;36.30;11.30;;;;;;;-2.16;100.00;103297.16;7343410;19;20722;-37
2024/01/11 08:27:19;;;;;;;16.33;5.20;;;;;;;-2.24;100.00;103308.78;7349985;19;20562;-38
2024/01/11 08:29:49;;;;;;;23.15;6.78;;;;;;;-2.25;100.00;103311.13;7325274;19;20201;-38
2024/01/11 08:32:22;;;;;;;26.30;9.55;;;;;;;-1.98;100.00;103324.03;7346913;19;20227;-38
2024/01/11 08:35:00;;;;;;;16.90;5.78;;;;;;;-2.12;100.00;103317.09;7325515;19;20265;-38
2024/01/11 08:37:30;;;;;;;30.42;11.27;;;;;;;-1.92;100.00;103321.38;7346115;19;20215;-41
2024/01/11 08:40:04;;;;;;;25.45;7.45;;;;;;;-2.07;100.00;103320.25;7326890;19;20213;-40
2024/01/11 08:42:34;;;;;;;22.45;6.63;;;;;;;-2.06;100.00;103324.59;7346964;19;20582;-38
2024/01/11 08:45:06;;;;;;;20.08;6.55;;;;;;;-1.90;100.00;103330.09;7323507;19;20202;-39
2024/01/11 08:47:38;;;;;;;22.83;5.72;;;;;;;-1.68;100.00;103338.97;7346571;19;20253;-39
2024/01/11 08:50:11;;;;;;;19.52;7.22;;;;;;;-1.76;100.00;103339.53;7325260;19;20307;-41
2024/01/11 08:52:40;;;;;;;29.42;8.57;;;;;;;-1.42;100.00;103332.97;7346448;19;20229;-39
2024/01/11 08:55:13;;;;;;;27.23;7.80;;;;;;;-1.37;100.00;103337.00;7325347;19;20198;-38
2024/01/11 08:57:46;;;;;;;23.70;6.50;;;;;;;-1.66;100.00;103314.75;7345587;19;20197;-38
2024/01/11 09:00:17;;;;;;;21.73;6.63;;;;;;;-1.50;100.00;103320.22;7324752;19;20285;-38
2024/01/11 09:02:48;;;;;;;25.17;7.32;;;;;;;-1.50;100.00;103299.94;7337225;19;20249;-38
2024/01/11 09:05:18;;;;;;;28.05;6.97;;;;;;;-1.56;100.00;103298.22;7348626;19;20202;-39
2024/01/11 09:07:48;;;;;;;46.10;12.80;;;;;;;-1.34;100.00;103291.81;7335382;19;20202;-38
2024/01/11 09:10:22;;;;;;;60.45;17.08;;;;;;;-1.45;100.00;103276.84;7346007;19;20198;-38
2024/01/11 09:12:52;;;;;;;33.17;10.60;;;;;;;-1.74;100.00;103271.38;7332609;19;20194;-40
2024/01/11 09:15:21;;;;;;;26.48;9.13;;;;;;;-1.62;100.00;103280.59;7353778;19;20224;-39
2024/01/11 09:17:52;;;;;;;29.17;8.75;;;;;;;-1.79;100.00;103274.22;7332050;19;20198;-38
2024/01/11 09:20:22;;;;;;;36.88;9.40;;;;;;;-1.75;100.00;103279.69;7353079;19;20209;-38
2024/01/11 09:22:51;;;;;;;43.38;12.73;;;;;;;-1.70;100.00;103284.66;7331268;19;20241;-41
2024/01/11 09:25:23;;;;;;;33.45;9.82;;;;;;;-1.83;100.00;103287.19;7349750;19;20194;-37
2024/01/11 09:27:53;;;;;;;37.25;11.88;;;;;;;-1.90;100.00;103293.06;7332119;19;20190;-41
2024/01/11 09:30:23;;;;;;;34.42;11.00;;;;;;;-1.82;100.00;103308.34;7354411;19;20190;-39
2024/01/11 09:32:52;;;;;;;75.70;22.13;;;;;;;-1.66;100.00;103318.88;7331091;19;20194;-38
2024/01/11 09:35:22;;;;;;;37.35;10.63;;;;;;;-1.82;100.00;103309.25;7352284;19;20649;-38
2024/01/11 09:37:52;;;;;;;38.28;13.52;;;;;;;-1.86;100.00;103307.03;7331606;19;20198;-40
2024/01/11 09:40:24;;;;;;;34.85;9.13;;;;;;;-1.71;100.00;103318.28;7353542;19;20202;-37
2024/01/11 09:42:54;;;;;;;33.67;10.43;;;;;;;-1.65;100.00;103319.09;7330864;19;20723;-39
2024/01/11 09:45:25;;;;;;;47.03;15.25;;;;;;;-1.64;100.00;103320.00;7353762;19;20198;-39
2024/01/11 09:47:54;;;;;;;35.78;10.50;;;;;;;-1.67;100.00;103332.25;7331278;19;20198;-39
2024/01/11 09:50:25;;;;;;;29.77;8.82;;;;;;;-1.64;100.00;103330.16;7353630;19;20600;-38
2024/01/11 09:52:55;;;;;;;69.88;21.02;;;;;;;-1.44;100.00;103325.16;7332501;19;20187;-39
2024/01/11 09:55:27;;;;;;;98.70;28.05;;;;;;;-1.50;100.00;103320.22;7351804;19;20754;-40
2024/01/11 09:58:01;;;;;;;28.27;8.70;;;;;;;-1.56;100.00;103324.47;7331687;19;20221;-38
2024/01/11 10:00:31;;;;;;;45.25;12.02;;;;;;;-1.60;100.00;103317.16;7353362;19;20219;-38
2024/01/11 10:03:01;;;;;;;44.83;12.40;;;;;;;-1.59;100.00;103320.63;7332044;19;20198;-38
2024/01/11 10:05:32;;;;;;;34.33;8.88;;;;;;;-1.67;100.00;103319.59;7353241;19;20566;-38
2024/01/11 10:08:01;;;;;;;34.28;10.68;;;;;;;-1.54;100.00;103333.16;7331387;19;20201;-39
2024/01/11 10:10:34;;;;;;;39.80;13.15;;;;;;;-1.63;100.00;103331.97;7353568;19;20275;-39
2024/01/11 10:13:03;;;;;;;31.25;10.68;;;;;;;-1.68;100.00;103327.91;7331354;19;20198;-39
2024/01/11 10:15:33;;;;;;;80.60;24.42;;;;;;;-1.53;100.00;103312.19;7353133;19;20202;-38
2024/01/11 10:18:12;;;;;;;45.03;14.77;;;;;;;-1.46;100.00;103323.13;7330737;19;20198;-39
2024/01/11 10:20:42;;;;;;;34.75;10.63;;;;;;;-1.58;100.00;103323.34;7353150;19;20190;-38
2024/01/11 10:23:12;;;;;;;24.25;7.45;;;;;;;-1.81;100.00;103331.34;7331209;19;20198;-37
2024/01/11 10:25:45;;;;;;;29.00;10.13;;;;;;;-1.58;100.00;103332.56;7351676;19;20261;-38
2024/01/11 10:28:16;;;;;;;36.13;8.40;;;;;;;-1.62;100.00;103338.84;7331287;19;20734;-40
2024/01/11 10:30:48;;;;;;;32.10;8.20;;;;;;;-1.62;100.00;103341.38;7353431;19;20194;-39
2024/01/11 10:33:18;;;;;;;24.95;6.78;;;;;;;-1.43;100.00;103343.81;7328914;19;20190;-38
2024/01/11 10:35:49;;;;;;;36.38;10.15;;;;;;;-1.16;100.00;103348.13;7330948;19;20194;-37
2024/01/11 10:38:20;;;;;;;49.08;13.48;;;;;;;-1.08;100.00;103347.50;7351098;19;20220;-37
2024/01/11 10:40:53;;;;;;;20.10;6.80;;;;;;;-1.17;100.00;103358.97;7331082;19;20202;-37
2024/01/11 10:43:24;;;;;;;25.48;7.68;;;;;;;-1.11;100.00;103370.84;7350490;19;20190;-39
2024/01/11 10:45:57;;;;;;;29.05;8.38;;;;;;;-1.07;100.00;103388.97;7327825;19;20876;-38
2024/01/11 10:48:28;;;;;;;23.70;7.65;;;;;;;-1.12;100.00;103386.75;7349377;19;20732;-41
2024/01/11 10:51:03;;;;;;;24.15;8.52;;;;;;;-1.00;100.00;103391.59;7328219;19;20580;-39
2024/01/11 10:53:39;;;;;;;30.92;8.23;;;;;;;-0.99;100.00;103384.22;7352297;19;20330;-38
2024/01/11 10:56:12;;;;;;;29.30;7.13;;;;;;;-1.04;100.00;103386.88;7331546;19;21091;-38
2024/01/11 10:58:42;;;;;;;32.72;9.05;;;;;;;-1.10;100.00;103389.47;7350222;19;20206;-40
2024/01/11 11:01:13;;;;;;;21.90;7.15;;;;;;;-1.09;100.00;103381.16;7331103;19;20215;-40
2024/01/11 11:03:44;;;;;;;22.38;8.02;;;;;;;-1.09;100.00;103381.16;7350259;19;20663;-40
2024/01/11 11:06:14;;;;;;;31.83;8.65;;;;;;;-1.04;100.00;103382.69;7331060;19;20215;-41
2024/01/11 11:08:44;;;;;;;45.00;12.85;;;;;;;-1.06;100.00;103376.50;7350468;19;20208;-38
2024/01/11 11:11:18;;;;;;;27.52;8.35;;;;;;;-1.04;100.00;103364.94;7330638;19;20194;-38
2024/01/11 11:13:49;;;;;;;24.77;8.27;;;;;;;-1.04;100.00;103370.00;7345306;19;20294;-41
2024/01/11 11:16:19;;;;;;;33.35;9.15;;;;;;;-1.16;100.00;103349.06;7352585;19;20738;-38